sensor_id;sensor_type;location;lat;lon;timestamp;P1;durP1;ratioP1;P2;durP2;ratioP2
22871;SDS011;11603;44.910;8.630;2023-04-16T07:58:52;12.13;;;6.85;;
22871;SDS011;11603;44.910;8.630;2023-04-16T09:31:31;11.63;;;7.68;;
22871;SDS011;11603;44.910;8.630;2023-04-16T15:25:53;4.05;;;2.50;;
22871;SDS011;11603;44.910;8.630;2023-04-16T18:24:03;3.47;;;1.10;;
22871;SDS011;11603;44.910;8.630;2023-04-16T19:13:33;1.92;;;0.85;;
22871;SDS011;11603;44.910;8.630;2023-04-16T19:15:59;1.60;;;0.80;;
22871;SDS011;11603;44.910;8.630;2023-04-16T19:18:25;0.88;;;0.77;;
22871;SDS011;11603;44.910;8.630;2023-04-16T19:20:50;1.52;;;0.80;;
22871;SDS011;11603;44.910;8.630;2023-04-16T19:23:16;1.67;;;0.98;;
22871;SDS011;11603;44.910;8.630;2023-04-16T19:25:41;1.38;;;1.00;;
22871;SDS011;11603;44.910;8.630;2023-04-16T19:28:07;2.00;;;0.90;;
22871;SDS011;11603;44.910;8.630;2023-04-16T19:30:32;3.05;;;1.30;;
22871;SDS011;11603;44.910;8.630;2023-04-16T19:32:58;1.35;;;0.80;;
22871;SDS011;11603;44.910;8.630;2023-04-16T19:35:23;1.00;;;0.75;;
22871;SDS011;11603;44.910;8.630;2023-04-16T19:37:49;3.20;;;1.10;;
22871;SDS011;11603;44.910;8.630;2023-04-16T19:40:18;2.47;;;0.98;;
22871;SDS011;11603;44.910;8.630;2023-04-16T19:42:43;1.98;;;1.23;;
22871;SDS011;11603;44.910;8.630;2023-04-16T19:45:09;0.88;;;0.80;;
22871;SDS011;11603;44.910;8.630;2023-04-16T19:47:34;1.40;;;1.00;;
22871;SDS011;11603;44.910;8.630;2023-04-16T19:50:00;3.13;;;0.90;;
22871;SDS011;11603;44.910;8.630;2023-04-16T19:52:26;3.45;;;1.00;;
22871;SDS011;11603;44.910;8.630;2023-04-16T19:54:54;1.10;;;1.00;;
22871;SDS011;11603;44.910;8.630;2023-04-16T19:57:20;2.35;;;1.02;;
22871;SDS011;11603;44.910;8.630;2023-04-16T19:59:45;1.10;;;0.80;;
22871;SDS011;11603;44.910;8.630;2023-04-16T20:02:11;1.00;;;0.90;;
22871;SDS011;11603;44.910;8.630;2023-04-16T20:04:37;1.40;;;1.10;;
22871;SDS011;11603;44.910;8.630;2023-04-16T20:07:02;1.17;;;1.02;;
22871;SDS011;11603;44.910;8.630;2023-04-16T20:09:28;1.73;;;1.00;;
22871;SDS011;11603;44.910;8.630;2023-04-16T20:11:53;1.80;;;1.10;;
22871;SDS011;11603;44.910;8.630;2023-04-16T20:14:19;2.33;;;1.10;;
22871;SDS011;11603;44.910;8.630;2023-04-16T20:16:44;1.27;;;0.90;;
22871;SDS011;11603;44.910;8.630;2023-04-16T20:19:10;1.58;;;1.00;;
22871;SDS011;11603;44.910;8.630;2023-04-16T20:21:41;1.67;;;1.20;;
22871;SDS011;11603;44.910;8.630;2023-04-16T20:24:09;2.75;;;1.10;;
22871;SDS011;11603;44.910;8.630;2023-04-16T20:26:35;1.38;;;1.00;;
22871;SDS011;11603;44.910;8.630;2023-04-16T20:29:01;1.10;;;1.00;;
22871;SDS011;11603;44.910;8.630;2023-04-16T20:31:26;1.60;;;1.20;;
22871;SDS011;11603;44.910;8.630;2023-04-16T20:33:52;2.55;;;1.30;;
22871;SDS011;11603;44.910;8.630;2023-04-16T20:36:18;3.65;;;1.08;;
22871;SDS011;11603;44.910;8.630;2023-04-16T20:38:43;1.65;;;1.20;;
22871;SDS011;11603;44.910;8.630;2023-04-16T20:41:09;1.33;;;1.10;;
22871;SDS011;11603;44.910;8.630;2023-04-16T20:43:36;1.33;;;1.00;;
22871;SDS011;11603;44.910;8.630;2023-04-16T20:46:08;1.90;;;1.30;;
22871;SDS011;11603;44.910;8.630;2023-04-16T20:48:35;3.53;;;1.30;;
22871;SDS011;11603;44.910;8.630;2023-04-16T20:51:10;1.88;;;1.00;;
22871;SDS011;11603;44.910;8.630;2023-04-16T20:53:38;3.03;;;1.25;;
22871;SDS011;11603;44.910;8.630;2023-04-16T20:56:04;1.88;;;1.15;;
22871;SDS011;11603;44.910;8.630;2023-04-16T20:58:30;2.05;;;1.27;;
22871;SDS011;11603;44.910;8.630;2023-04-16T21:00:56;3.33;;;1.30;;
22871;SDS011;11603;44.910;8.630;2023-04-16T21:03:22;1.63;;;1.10;;
22871;SDS011;11603;44.910;8.630;2023-04-16T21:05:51;1.88;;;1.38;;
22871;SDS011;11603;44.910;8.630;2023-04-16T21:08:21;2.45;;;1.40;;
22871;SDS011;11603;44.910;8.630;2023-04-16T21:10:47;1.65;;;1.13;;
22871;SDS011;11603;44.910;8.630;2023-04-16T21:13:16;1.75;;;1.20;;
22871;SDS011;11603;44.910;8.630;2023-04-16T21:15:46;1.75;;;1.30;;
22871;SDS011;11603;44.910;8.630;2023-04-16T21:18:15;1.90;;;1.30;;
22871;SDS011;11603;44.910;8.630;2023-04-16T21:20:42;1.70;;;1.20;;
22871;SDS011;11603;44.910;8.630;2023-04-16T21:23:08;4.20;;;1.10;;
22871;SDS011;11603;44.910;8.630;2023-04-16T21:25:36;3.00;;;1.10;;
22871;SDS011;11603;44.910;8.630;2023-04-16T21:28:02;1.48;;;1.20;;
22871;SDS011;11603;44.910;8.630;2023-04-16T21:30:28;2.20;;;1.08;;
22871;SDS011;11603;44.910;8.630;2023-04-16T21:32:54;2.30;;;1.40;;
22871;SDS011;11603;44.910;8.630;2023-04-16T21:35:19;6.82;;;1.60;;
22871;SDS011;11603;44.910;8.630;2023-04-16T21:37:47;4.43;;;1.70;;
22871;SDS011;11603;44.910;8.630;2023-04-16T21:40:12;2.35;;;1.30;;
22871;SDS011;11603;44.910;8.630;2023-04-16T21:42:38;2.92;;;1.40;;
22871;SDS011;11603;44.910;8.630;2023-04-16T21:45:07;4.03;;;1.00;;
22871;SDS011;11603;44.910;8.630;2023-04-16T21:47:33;2.88;;;1.50;;
22871;SDS011;11603;44.910;8.630;2023-04-16T21:49:59;1.92;;;1.00;;
22871;SDS011;11603;44.910;8.630;2023-04-16T21:52:24;1.23;;;1.10;;
22871;SDS011;11603;44.910;8.630;2023-04-16T21:54:59;1.88;;;1.15;;
22871;SDS011;11603;44.910;8.630;2023-04-16T21:57:24;3.10;;;1.08;;
22871;SDS011;11603;44.910;8.630;2023-04-16T21:59:50;1.70;;;1.33;;
22871;SDS011;11603;44.910;8.630;2023-04-16T22:02:16;2.97;;;1.27;;
22871;SDS011;11603;44.910;8.630;2023-04-16T22:04:53;3.70;;;1.13;;
22871;SDS011;11603;44.910;8.630;2023-04-16T22:07:18;4.00;;;1.05;;
22871;SDS011;11603;44.910;8.630;2023-04-16T22:09:44;2.35;;;1.08;;
22871;SDS011;11603;44.910;8.630;2023-04-16T22:12:13;1.80;;;1.05;;
22871;SDS011;11603;44.910;8.630;2023-04-16T22:14:38;3.70;;;1.20;;
22871;SDS011;11603;44.910;8.630;2023-04-16T22:17:04;2.13;;;0.95;;
22871;SDS011;11603;44.910;8.630;2023-04-16T22:19:29;2.00;;;1.00;;
22871;SDS011;11603;44.910;8.630;2023-04-16T22:21:58;8.40;;;0.93;;
22871;SDS011;11603;44.910;8.630;2023-04-16T22:24:25;2.35;;;0.90;;
22871;SDS011;11603;44.910;8.630;2023-04-16T22:26:50;1.40;;;1.05;;
22871;SDS011;11603;44.910;8.630;2023-04-16T22:29:15;4.05;;;1.10;;
22871;SDS011;11603;44.910;8.630;2023-04-16T22:31:41;1.10;;;1.00;;
22871;SDS011;11603;44.910;8.630;2023-04-16T22:34:06;2.03;;;1.10;;
22871;SDS011;11603;44.910;8.630;2023-04-16T22:36:38;1.42;;;1.00;;
22871;SDS011;11603;44.910;8.630;2023-04-16T22:39:04;4.88;;;0.98;;
22871;SDS011;11603;44.910;8.630;2023-04-16T22:41:35;1.60;;;1.02;;
22871;SDS011;11603;44.910;8.630;2023-04-16T22:44:01;1.80;;;1.00;;
22871;SDS011;11603;44.910;8.630;2023-04-16T22:46:33;8.15;;;4.13;;
22871;SDS011;11603;44.910;8.630;2023-04-16T22:49:01;5.28;;;3.40;;
22871;SDS011;11603;44.910;8.630;2023-04-16T22:51:27;1.80;;;1.30;;
22871;SDS011;11603;44.910;8.630;2023-04-16T22:53:53;1.42;;;1.10;;
22871;SDS011;11603;44.910;8.630;2023-04-16T22:56:19;2.05;;;1.20;;
22871;SDS011;11603;44.910;8.630;2023-04-16T22:58:48;2.45;;;1.20;;
22871;SDS011;11603;44.910;8.630;2023-04-16T23:01:14;4.15;;;1.10;;
22871;SDS011;11603;44.910;8.630;2023-04-16T23:03:40;2.65;;;1.10;;
22871;SDS011;11603;44.910;8.630;2023-04-16T23:06:06;1.38;;;1.10;;
22871;SDS011;11603;44.910;8.630;2023-04-16T23:08:31;1.63;;;1.20;;
22871;SDS011;11603;44.910;8.630;2023-04-16T23:11:06;0.90;;;0.90;;
22871;SDS011;11603;44.910;8.630;2023-04-16T23:13:34;1.92;;;1.25;;
22871;SDS011;11603;44.910;8.630;2023-04-16T23:16:00;4.68;;;1.50;;
22871;SDS011;11603;44.910;8.630;2023-04-16T23:18:27;2.38;;;1.60;;
22871;SDS011;11603;44.910;8.630;2023-04-16T23:20:55;1.92;;;1.60;;
22871;SDS011;11603;44.910;8.630;2023-04-16T23:23:24;2.80;;;1.60;;
22871;SDS011;11603;44.910;8.630;2023-04-16T23:25:52;2.00;;;1.58;;
22871;SDS011;11603;44.910;8.630;2023-04-16T23:28:19;3.50;;;1.60;;
22871;SDS011;11603;44.910;8.630;2023-04-16T23:30:49;4.20;;;1.95;;
22871;SDS011;11603;44.910;8.630;2023-04-16T23:33:19;4.20;;;1.90;;
22871;SDS011;11603;44.910;8.630;2023-04-16T23:35:48;2.63;;;1.67;;
22871;SDS011;11603;44.910;8.630;2023-04-16T23:38:14;3.13;;;1.80;;
22871;SDS011;11603;44.910;8.630;2023-04-16T23:40:39;3.08;;;1.95;;
22871;SDS011;11603;44.910;8.630;2023-04-16T23:43:05;2.38;;;2.03;;
22871;SDS011;11603;44.910;8.630;2023-04-16T23:45:30;3.15;;;1.90;;
22871;SDS011;11603;44.910;8.630;2023-04-16T23:47:56;4.07;;;2.20;;
22871;SDS011;11603;44.910;8.630;2023-04-16T23:50:21;3.38;;;2.08;;
22871;SDS011;11603;44.910;8.630;2023-04-16T23:52:47;3.75;;;2.10;;
22871;SDS011;11603;44.910;8.630;2023-04-16T23:55:12;3.40;;;2.15;;
22871;SDS011;11603;44.910;8.630;2023-04-16T23:57:37;2.50;;;2.30;;
